sensor_id;sensor_type;location;lat;lon;timestamp;pressure;altitude;pressure_sealevel;temperature;humidity
50349;BME280;36250;48.740;22.174;2022-08-26T00:00:42;99923.09;;;22.31;48.13
50349;BME280;36250;48.740;22.174;2022-08-26T00:03:09;99912.06;;;22.27;48.16
50349;BME280;36250;48.740;22.174;2022-08-26T00:05:35;99910.19;;;22.23;48.14
50349;BME280;36250;48.740;22.174;2022-08-26T00:08:00;99916.94;;;22.20;48.39
50349;BME280;36250;48.740;22.174;2022-08-26T00:10:26;99914.25;;;22.15;48.45
50349;BME280;36250;48.740;22.174;2022-08-26T00:12:51;99915.66;;;22.07;49.11
50349;BME280;36250;48.740;22.174;2022-08-26T00:15:19;99917.03;;;21.99;49.43
50349;BME280;36250;48.740;22.174;2022-08-26T00:17:46;99919.47;;;21.91;49.83
50349;BME280;36250;48.740;22.174;2022-08-26T00:20:14;99918.13;;;21.88;49.87
50349;BME280;36250;48.740;22.174;2022-08-26T00:22:40;99913.81;;;21.82;50.14
50349;BME280;36250;48.740;22.174;2022-08-26T00:25:07;99921.66;;;21.78;50.23
50349;BME280;36250;48.740;22.174;2022-08-26T00:27:33;99915.75;;;21.71;50.71
50349;BME280;36250;48.740;22.174;2022-08-26T00:30:05;99904.66;;;21.62;50.58
50349;BME280;36250;48.740;22.174;2022-08-26T00:32:31;99925.69;;;21.70;50.44
50349;BME280;36250;48.740;22.174;2022-08-26T00:34:56;99926.78;;;21.69;50.73
50349;BME280;36250;48.740;22.174;2022-08-26T00:37:21;99928.41;;;21.65;51.21
50349;BME280;36250;48.740;22.174;2022-08-26T00:39:47;99917.59;;;21.60;50.98
50349;BME280;36250;48.740;22.174;2022-08-26T00:42:12;99926.78;;;21.59;50.95
50349;BME280;36250;48.740;22.174;2022-08-26T00:44:38;99920.31;;;21.50;51.23
50349;BME280;36250;48.740;22.174;2022-08-26T00:47:06;99925.44;;;21.36;51.77
50349;BME280;36250;48.740;22.174;2022-08-26T00:49:42;99928.41;;;21.29;52.22
50349;BME280;36250;48.740;22.174;2022-08-26T00:52:13;99931.63;;;21.26;52.28
50349;BME280;36250;48.740;22.174;2022-08-26T00:54:42;99934.06;;;21.22;52.45
50349;BME280;36250;48.740;22.174;2022-08-26T00:57:12;99930.00;;;21.15;53.31
50349;BME280;36250;48.740;22.174;2022-08-26T00:59:39;99926.25;;;21.05;54.34
50349;BME280;36250;48.740;22.174;2022-08-26T01:02:05;99936.72;;;20.96;54.98
50349;BME280;36250;48.740;22.174;2022-08-26T01:04:32;99931.53;;;20.74;55.64
50349;BME280;36250;48.740;22.174;2022-08-26T01:06:58;99943.34;;;20.63;55.87
50349;BME280;36250;48.740;22.174;2022-08-26T01:09:24;99942.50;;;20.57;56.09
50349;BME280;36250;48.740;22.174;2022-08-26T01:11:52;99937.66;;;20.54;56.16
50349;BME280;36250;48.740;22.174;2022-08-26T01:14:19;99934.66;;;20.45;57.33
50349;BME280;36250;48.740;22.174;2022-08-26T01:16:46;99944.84;;;20.38;58.09
50349;BME280;36250;48.740;22.174;2022-08-26T01:19:19;99941.59;;;20.31;58.55
50349;BME280;36250;48.740;22.174;2022-08-26T01:21:50;99942.38;;;20.26;58.69
50349;BME280;36250;48.740;22.174;2022-08-26T01:24:18;99948.56;;;20.21;59.00
50349;BME280;36250;48.740;22.174;2022-08-26T01:26:43;99954.19;;;20.20;58.81
50349;BME280;36250;48.740;22.174;2022-08-26T01:29:13;99950.91;;;20.12;59.83
50349;BME280;36250;48.740;22.174;2022-08-26T01:31:41;99942.81;;;20.02;59.84
50349;BME280;36250;48.740;22.174;2022-08-26T01:34:23;99941.97;;;20.02;60.27
50349;BME280;36250;48.740;22.174;2022-08-26T01:36:58;99952.44;;;19.98;60.13
50349;BME280;36250;48.740;22.174;2022-08-26T01:39:25;99951.78;;;19.86;60.76
50349;BME280;36250;48.740;22.174;2022-08-26T01:41:53;99954.97;;;19.77;61.85
50349;BME280;36250;48.740;22.174;2022-08-26T01:44:23;99948.22;;;19.75;62.07
50349;BME280;36250;48.740;22.174;2022-08-26T01:46:50;99955.22;;;19.76;62.73
50349;BME280;36250;48.740;22.174;2022-08-26T01:49:18;99956.81;;;19.72;63.00
50349;BME280;36250;48.740;22.174;2022-08-26T01:51:45;99948.22;;;19.75;62.71
50349;BME280;36250;48.740;22.174;2022-08-26T01:54:12;99957.06;;;19.70;62.87
50349;BME280;36250;48.740;22.174;2022-08-26T01:56:37;99951.94;;;19.68;63.35
50349;BME280;36250;48.740;22.174;2022-08-26T01:59:06;99953.28;;;19.66;63.39
50349;BME280;36250;48.740;22.174;2022-08-26T02:01:34;99948.94;;;19.60;63.80
50349;BME280;36250;48.740;22.174;2022-08-26T02:04:11;99950.84;;;19.64;64.14
50349;BME280;36250;48.740;22.174;2022-08-26T02:06:39;99948.16;;;19.64;64.75
50349;BME280;36250;48.740;22.174;2022-08-26T02:09:06;99949.72;;;19.55;64.95
50349;BME280;36250;48.740;22.174;2022-08-26T02:11:32;99947.47;;;19.42;65.63
50349;BME280;36250;48.740;22.174;2022-08-26T02:14:01;99931.78;;;19.33;65.56
50349;BME280;36250;48.740;22.174;2022-08-26T02:16:32;99940.69;;;19.34;66.35
50349;BME280;36250;48.740;22.174;2022-08-26T02:18:59;99943.63;;;19.37;66.09
50349;BME280;36250;48.740;22.174;2022-08-26T02:21:25;99945.84;;;19.40;65.98
50349;BME280;36250;48.740;22.174;2022-08-26T02:23:51;99940.72;;;19.39;65.98
50349;BME280;36250;48.740;22.174;2022-08-26T02:26:20;99944.25;;;19.45;65.87
50349;BME280;36250;48.740;22.174;2022-08-26T02:28:54;99944.00;;;19.46;66.15
50349;BME280;36250;48.740;22.174;2022-08-26T02:31:20;99933.00;;;19.48;66.26
50349;BME280;36250;48.740;22.174;2022-08-26T02:33:46;99941.06;;;19.48;66.48
50349;BME280;36250;48.740;22.174;2022-08-26T02:36:11;99945.59;;;19.47;66.89
50349;BME280;36250;48.740;22.174;2022-08-26T02:38:37;99945.00;;;19.40;67.54
50349;BME280;36250;48.740;22.174;2022-08-26T02:41:03;99941.47;;;19.34;67.88
50349;BME280;36250;48.740;22.174;2022-08-26T02:43:28;99939.81;;;19.28;67.96
50349;BME280;36250;48.740;22.174;2022-08-26T02:45:53;99939.22;;;19.21;68.63
50349;BME280;36250;48.740;22.174;2022-08-26T02:48:20;99937.50;;;19.09;68.97
50349;BME280;36250;48.740;22.174;2022-08-26T02:50:46;99934.47;;;19.01;68.78
50349;BME280;36250;48.740;22.174;2022-08-26T02:53:13;99934.06;;;18.92;69.07
50349;BME280;36250;48.740;22.174;2022-08-26T02:55:38;99936.97;;;18.85;69.55
50349;BME280;36250;48.740;22.174;2022-08-26T02:58:07;99942.06;;;18.87;70.45
50349;BME280;36250;48.740;22.174;2022-08-26T03:00:35;99944.16;;;18.79;71.21
50349;BME280;36250;48.740;22.174;2022-08-26T03:03:01;99943.16;;;18.63;71.08
50349;BME280;36250;48.740;22.174;2022-08-26T03:05:26;99940.31;;;18.48;71.81
50349;BME280;36250;48.740;22.174;2022-08-26T03:07:52;99936.50;;;18.44;71.67
50349;BME280;36250;48.740;22.174;2022-08-26T03:10:18;99944.56;;;18.44;71.69
50349;BME280;36250;48.740;22.174;2022-08-26T03:12:44;99943.56;;;18.50;71.42
50349;BME280;36250;48.740;22.174;2022-08-26T03:15:11;99948.03;;;18.44;71.44
50349;BME280;36250;48.740;22.174;2022-08-26T03:17:37;99944.59;;;18.49;71.42
50349;BME280;36250;48.740;22.174;2022-08-26T03:20:04;99950.03;;;18.54;71.40
50349;BME280;36250;48.740;22.174;2022-08-26T03:22:34;99942.22;;;18.52;71.54
50349;BME280;36250;48.740;22.174;2022-08-26T03:25:01;99941.72;;;18.33;72.00
50349;BME280;36250;48.740;22.174;2022-08-26T03:27:27;99943.72;;;18.21;72.80
50349;BME280;36250;48.740;22.174;2022-08-26T03:29:52;99935.19;;;18.24;73.30
50349;BME280;36250;48.740;22.174;2022-08-26T03:32:36;99945.16;;;18.29;73.12
50349;BME280;36250;48.740;22.174;2022-08-26T03:35:01;99933.94;;;18.32;73.14
50349;BME280;36250;48.740;22.174;2022-08-26T03:37:27;99940.38;;;18.31;72.33
50349;BME280;36250;48.740;22.174;2022-08-26T03:39:52;99945.03;;;18.18;72.79
50349;BME280;36250;48.740;22.174;2022-08-26T03:42:17;99951.75;;;18.21;73.00
50349;BME280;36250;48.740;22.174;2022-08-26T03:44:42;99945.91;;;18.24;73.01
50349;BME280;36250;48.740;22.174;2022-08-26T03:47:08;99950.00;;;18.09;73.79
50349;BME280;36250;48.740;22.174;2022-08-26T03:49:33;99952.06;;;18.02;74.01
50349;BME280;36250;48.740;22.174;2022-08-26T03:52:00;99957.31;;;17.97;74.75
50349;BME280;36250;48.740;22.174;2022-08-26T03:54:25;99948.94;;;17.93;74.97
50349;BME280;36250;48.740;22.174;2022-08-26T03:56:51;99950.78;;;17.93;74.96
50349;BME280;36250;48.740;22.174;2022-08-26T03:59:16;99946.94;;;18.01;75.28
50349;BME280;36250;48.740;22.174;2022-08-26T04:01:41;99951.56;;;18.05;74.72
50349;BME280;36250;48.740;22.174;2022-08-26T04:04:07;99945.38;;;18.05;74.27
50349;BME280;36250;48.740;22.174;2022-08-26T04:06:37;99946.69;;;18.02;74.57
50349;BME280;36250;48.740;22.174;2022-08-26T04:09:10;99947.00;;;18.06;74.00
50349;BME280;36250;48.740;22.174;2022-08-26T04:11:36;99943.81;;;18.09;74.01
50349;BME280;36250;48.740;22.174;2022-08-26T04:14:11;99942.25;;;18.13;73.97
50349;BME280;36250;48.740;22.174;2022-08-26T04:16:38;99948.28;;;18.20;73.76
50349;BME280;36250;48.740;22.174;2022-08-26T04:19:04;99954.28;;;18.28;73.82
50349;BME280;36250;48.740;22.174;2022-08-26T04:21:30;99954.81;;;18.30;74.10
50349;BME280;36250;48.740;22.174;2022-08-26T04:23:56;99961.06;;;18.35;73.40
50349;BME280;36250;48.740;22.174;2022-08-26T04:26:22;99950.47;;;18.46;73.22
50349;BME280;36250;48.740;22.174;2022-08-26T04:28:50;99950.59;;;18.56;72.82
50349;BME280;36250;48.740;22.174;2022-08-26T04:31:16;99955.50;;;18.64;72.40
50349;BME280;36250;48.740;22.174;2022-08-26T04:33:43;99950.19;;;18.70;72.34
50349;BME280;36250;48.740;22.174;2022-08-26T04:36:09;99954.38;;;18.82;72.10
50349;BME280;36250;48.740;22.174;2022-08-26T04:38:35;99953.06;;;18.85;72.08
50349;BME280;36250;48.740;22.174;2022-08-26T04:41:01;99955.53;;;18.92;72.06
50349;BME280;36250;48.740;22.174;2022-08-26T04:43:27;99959.94;;;18.98;71.44
50349;BME280;36250;48.740;22.174;2022-08-26T04:45:55;99965.53;;;18.96;71.78
50349;BME280;36250;48.740;22.174;2022-08-26T04:48:22;99963.66;;;18.97;71.44
50349;BME280;36250;48.740;22.174;2022-08-26T04:50:47;99954.88;;;19.02;70.89
50349;BME280;36250;48.740;22.174;2022-08-26T04:53:12;99960.78;;;19.04;70.22
50349;BME280;36250;48.740;22.174;2022-08-26T04:55:38;99957.41;;;19.14;68.80
50349;BME280;36250;48.740;22.174;2022-08-26T04:58:04;99958.28;;;19.19;68.36
50349;BME280;36250;48.740;22.174;2022-08-26T05:00:29;99957.53;;;19.29;67.00
50349;BME280;36250;48.740;22.174;2022-08-26T05:02:54;99959.50;;;19.39;66.41
50349;BME280;36250;48.740;22.174;2022-08-26T05:05:20;99959.31;;;19.46;66.30
50349;BME280;36250;48.740;22.174;2022-08-26T05:07:45;99964.41;;;19.47;66.30
50349;BME280;36250;48.740;22.174;2022-08-26T05:10:10;99962.19;;;19.39;67.52
50349;BME280;36250;48.740;22.174;2022-08-26T05:12:36;99962.00;;;19.46;67.96
50349;BME280;36250;48.740;22.174;2022-08-26T05:15:01;99970.94;;;19.57;67.63
50349;BME280;36250;48.740;22.174;2022-08-26T05:17:26;99968.88;;;19.69;67.68
50349;BME280;36250;48.740;22.174;2022-08-26T05:19:52;99968.22;;;19.89;66.60
50349;BME280;36250;48.740;22.174;2022-08-26T05:22:18;99963.50;;;20.07;65.50
50349;BME280;36250;48.740;22.174;2022-08-26T05:24:44;99964.09;;;20.19;65.16
50349;BME280;36250;48.740;22.174;2022-08-26T05:27:11;99963.84;;;20.16;65.51
50349;BME280;36250;48.740;22.174;2022-08-26T05:29:36;99967.13;;;20.33;64.90
50349;BME280;36250;48.740;22.174;2022-08-26T05:32:01;99965.88;;;20.46;64.13
50349;BME280;36250;48.740;22.174;2022-08-26T05:34:27;99963.47;;;20.50;63.90
50349;BME280;36250;48.740;22.174;2022-08-26T05:36:53;99969.13;;;20.59;63.64
50349;BME280;36250;48.740;22.174;2022-08-26T05:39:18;99969.19;;;20.74;63.09
50349;BME280;36250;48.740;22.174;2022-08-26T05:41:45;99969.25;;;20.90;62.29
50349;BME280;36250;48.740;22.174;2022-08-26T05:44:12;99966.31;;;20.91;62.38
50349;BME280;36250;48.740;22.174;2022-08-26T05:46:39;99971.97;;;21.00;62.17
50349;BME280;36250;48.740;22.174;2022-08-26T05:49:05;99969.59;;;21.19;61.70
50349;BME280;36250;48.740;22.174;2022-08-26T05:51:32;99970.69;;;21.44;60.67
50349;BME280;36250;48.740;22.174;2022-08-26T05:54:00;99966.13;;;21.70;60.60
50349;BME280;36250;48.740;22.174;2022-08-26T05:56:26;99965.84;;;21.82;59.06
50349;BME280;36250;48.740;22.174;2022-08-26T05:58:52;99969.34;;;21.78;58.83
50349;BME280;36250;48.740;22.174;2022-08-26T06:01:21;99970.44;;;21.87;59.03
50349;BME280;36250;48.740;22.174;2022-08-26T06:03:49;99976.06;;;22.01;59.08
50349;BME280;36250;48.740;22.174;2022-08-26T06:06:24;99962.56;;;22.17;58.50
50349;BME280;36250;48.740;22.174;2022-08-26T06:08:51;99962.81;;;22.25;58.65
50349;BME280;36250;48.740;22.174;2022-08-26T06:11:20;99958.66;;;22.43;57.15
50349;BME280;36250;48.740;22.174;2022-08-26T06:13:48;99962.94;;;22.60;57.11
50349;BME280;36250;48.740;22.174;2022-08-26T06:16:15;99958.59;;;22.69;56.55
50349;BME280;36250;48.740;22.174;2022-08-26T06:18:43;99961.19;;;22.90;56.75
50349;BME280;36250;48.740;22.174;2022-08-26T06:23:41;99960.03;;;23.41;54.15
50349;BME280;36250;48.740;22.174;2022-08-26T06:26:25;99961.66;;;23.72;52.99
50349;BME280;36250;48.740;22.174;2022-08-26T06:28:50;99960.38;;;23.94;51.76
50349;BME280;36250;48.740;22.174;2022-08-26T06:31:16;99956.38;;;24.15;51.55
50349;BME280;36250;48.740;22.174;2022-08-26T06:33:42;99953.59;;;24.45;50.32
50349;BME280;36250;48.740;22.174;2022-08-26T06:36:11;99948.13;;;24.69;48.49
50349;BME280;36250;48.740;22.174;2022-08-26T06:38:38;99941.06;;;24.93;46.99
50349;BME280;36250;48.740;22.174;2022-08-26T06:41:07;99948.22;;;25.22;45.77
50349;BME280;36250;48.740;22.174;2022-08-26T06:43:34;99951.25;;;25.53;43.54
50349;BME280;36250;48.740;22.174;2022-08-26T06:46:01;99953.53;;;25.79;43.21
50349;BME280;36250;48.740;22.174;2022-08-26T06:48:27;99954.94;;;26.04;42.76
50349;BME280;36250;48.740;22.174;2022-08-26T06:51:22;99947.00;;;26.22;41.37
50349;BME280;36250;48.740;22.174;2022-08-26T06:53:49;99942.41;;;26.37;41.35
50349;BME280;36250;48.740;22.174;2022-08-26T06:56:18;99932.81;;;26.53;40.17
50349;BME280;36250;48.740;22.174;2022-08-26T06:58:44;99926.94;;;26.74;37.55
50349;BME280;36250;48.740;22.174;2022-08-26T07:01:20;99933.84;;;26.94;38.31
50349;BME280;36250;48.740;22.174;2022-08-26T07:03:48;99934.72;;;27.03;38.37
50349;BME280;36250;48.740;22.174;2022-08-26T07:06:13;99936.38;;;27.13;38.22
50349;BME280;36250;48.740;22.174;2022-08-26T07:08:39;99928.59;;;27.21;37.61
50349;BME280;36250;48.740;22.174;2022-08-26T07:11:06;99928.97;;;27.28;35.96
50349;BME280;36250;48.740;22.174;2022-08-26T07:13:32;99928.34;;;27.31;37.33
50349;BME280;36250;48.740;22.174;2022-08-26T07:16:04;99925.19;;;27.38;36.23
50349;BME280;36250;48.740;22.174;2022-08-26T07:18:31;99924.91;;;27.48;35.92
50349;BME280;36250;48.740;22.174;2022-08-26T07:21:00;99923.41;;;27.65;35.88
50349;BME280;36250;48.740;22.174;2022-08-26T07:23:25;99926.38;;;27.77;36.71
50349;BME280;36250;48.740;22.174;2022-08-26T07:25:51;99919.06;;;27.95;35.33
50349;BME280;36250;48.740;22.174;2022-08-26T07:28:16;99922.78;;;28.08;35.14
50349;BME280;36250;48.740;22.174;2022-08-26T07:30:42;99914.78;;;28.12;35.54
50349;BME280;36250;48.740;22.174;2022-08-26T07:33:07;99916.22;;;28.09;35.84
50349;BME280;36250;48.740;22.174;2022-08-26T07:35:32;99915.09;;;28.10;36.65
50349;BME280;36250;48.740;22.174;2022-08-26T07:37:58;99912.75;;;28.26;36.47
50349;BME280;36250;48.740;22.174;2022-08-26T07:40:23;99918.25;;;28.44;35.39
50349;BME280;36250;48.740;22.174;2022-08-26T07:42:49;99913.44;;;28.58;35.21
50349;BME280;36250;48.740;22.174;2022-08-26T07:45:14;99908.97;;;28.71;33.09
50349;BME280;36250;48.740;22.174;2022-08-26T07:47:40;99903.34;;;28.68;33.26
50349;BME280;36250;48.740;22.174;2022-08-26T07:50:05;99898.72;;;28.68;34.01
50349;BME280;36250;48.740;22.174;2022-08-26T07:52:31;99897.44;;;28.74;33.54
50349;BME280;36250;48.740;22.174;2022-08-26T07:54:58;99892.50;;;28.85;33.52
50349;BME280;36250;48.740;22.174;2022-08-26T07:57:25;99891.19;;;28.91;30.47
50349;BME280;36250;48.740;22.174;2022-08-26T07:59:51;99885.75;;;28.91;30.55
50349;BME280;36250;48.740;22.174;2022-08-26T08:02:17;99878.84;;;28.94;30.43
50349;BME280;36250;48.740;22.174;2022-08-26T08:04:42;99874.66;;;29.05;29.30
50349;BME280;36250;48.740;22.174;2022-08-26T08:07:07;99868.84;;;29.16;29.79
50349;BME280;36250;48.740;22.174;2022-08-26T08:09:33;99874.78;;;29.27;29.95
50349;BME280;36250;48.740;22.174;2022-08-26T08:11:58;99883.56;;;29.41;32.05
50349;BME280;36250;48.740;22.174;2022-08-26T08:14:23;99872.63;;;29.50;33.35
50349;BME280;36250;48.740;22.174;2022-08-26T08:16:49;99877.34;;;29.41;32.89
50349;BME280;36250;48.740;22.174;2022-08-26T08:19:14;99870.56;;;29.47;33.67
50349;BME280;36250;48.740;22.174;2022-08-26T08:21:41;99878.06;;;29.59;32.40
50349;BME280;36250;48.740;22.174;2022-08-26T08:24:07;99868.75;;;29.60;32.18
50349;BME280;36250;48.740;22.174;2022-08-26T08:26:32;99868.69;;;29.69;32.14
50349;BME280;36250;48.740;22.174;2022-08-26T08:28:59;99859.44;;;29.91;31.40
50349;BME280;36250;48.740;22.174;2022-08-26T08:31:27;99856.63;;;30.09;30.07
50349;BME280;36250;48.740;22.174;2022-08-26T08:33:53;99851.91;;;30.18;29.80
50349;BME280;36250;48.740;22.174;2022-08-26T08:36:19;99845.56;;;30.26;29.42
50349;BME280;36250;48.740;22.174;2022-08-26T08:38:45;99839.25;;;30.34;27.58
50349;BME280;36250;48.740;22.174;2022-08-26T08:44:22;99830.66;;;30.66;26.68
50349;BME280;36250;48.740;22.174;2022-08-26T08:46:51;99829.44;;;30.76;27.11
50349;BME280;36250;48.740;22.174;2022-08-26T08:49:18;99822.66;;;30.95;27.00
50349;BME280;36250;48.740;22.174;2022-08-26T08:51:50;99820.50;;;31.00;25.63
50349;BME280;36250;48.740;22.174;2022-08-26T08:54:19;99825.19;;;31.12;26.57
50349;BME280;36250;48.740;22.174;2022-08-26T08:56:58;99821.84;;;31.28;25.85
50349;BME280;36250;48.740;22.174;2022-08-26T08:59:32;99820.38;;;31.43;25.23
50349;BME280;36250;48.740;22.174;2022-08-26T09:02:17;99815.69;;;31.31;25.17
50349;BME280;36250;48.740;22.174;2022-08-26T09:05:08;99801.66;;;31.45;22.67
50349;BME280;36250;48.740;22.174;2022-08-26T09:07:57;99807.47;;;31.68;22.54
50349;BME280;36250;48.740;22.174;2022-08-26T09:10:33;99802.41;;;31.95;22.73
50349;BME280;36250;48.740;22.174;2022-08-26T09:13:01;99797.78;;;32.24;22.88
50349;BME280;36250;48.740;22.174;2022-08-26T09:15:35;99795.03;;;32.24;23.09
50349;BME280;36250;48.740;22.174;2022-08-26T09:20:59;99795.56;;;32.42;22.90
50349;BME280;36250;48.740;22.174;2022-08-26T09:23:29;99784.75;;;32.33;23.09
50349;BME280;36250;48.740;22.174;2022-08-26T09:26:01;99784.97;;;32.28;23.27
50349;BME280;36250;48.740;22.174;2022-08-26T09:28:28;99783.72;;;32.38;22.90
50349;BME280;36250;48.740;22.174;2022-08-26T09:31:28;99789.28;;;32.42;22.80
50349;BME280;36250;48.740;22.174;2022-08-26T09:36:41;99774.81;;;32.29;22.74
50349;BME280;36250;48.740;22.174;2022-08-26T09:39:31;99778.03;;;32.18;22.71
50349;BME280;36250;48.740;22.174;2022-08-26T09:44:27;99764.72;;;32.17;23.52
50349;BME280;36250;48.740;22.174;2022-08-26T09:46:56;99758.47;;;32.04;21.44
50349;BME280;36250;48.740;22.174;2022-08-26T09:49:35;99763.50;;;32.02;22.70
50349;BME280;36250;48.740;22.174;2022-08-26T09:52:12;99763.38;;;31.98;22.29
50349;BME280;36250;48.740;22.174;2022-08-26T09:54:40;99758.22;;;32.09;21.90
50349;BME280;36250;48.740;22.174;2022-08-26T09:57:18;99757.88;;;31.82;22.64
50349;BME280;36250;48.740;22.174;2022-08-26T09:59:44;99747.31;;;31.97;21.60
50349;BME280;36250;48.740;22.174;2022-08-26T10:02:22;99752.22;;;32.03;22.04
50349;BME280;36250;48.740;22.174;2022-08-26T10:04:52;99746.22;;;32.14;21.07
50349;BME280;36250;48.740;22.174;2022-08-26T10:07:42;99738.66;;;32.23;20.94
50349;BME280;36250;48.740;22.174;2022-08-26T10:10:19;99749.63;;;32.23;22.36
50349;BME280;36250;48.740;22.174;2022-08-26T10:13:03;99749.56;;;32.35;22.06
50349;BME280;36250;48.740;22.174;2022-08-26T10:15:38;99747.75;;;32.56;21.02
50349;BME280;36250;48.740;22.174;2022-08-26T10:18:14;99750.34;;;32.64;21.55
50349;BME280;36250;48.740;22.174;2022-08-26T10:20:54;99741.84;;;32.70;22.07
50349;BME280;36250;48.740;22.174;2022-08-26T10:23:24;99741.16;;;32.73;21.84
50349;BME280;36250;48.740;22.174;2022-08-26T10:31:38;99736.91;;;32.59;22.28
50349;BME280;36250;48.740;22.174;2022-08-26T10:34:05;99737.53;;;32.69;21.40
50349;BME280;36250;48.740;22.174;2022-08-26T10:36:35;99741.78;;;32.82;21.50
50349;BME280;36250;48.740;22.174;2022-08-26T10:39:29;99739.44;;;32.97;21.70
50349;BME280;36250;48.740;22.174;2022-08-26T10:41:59;99733.56;;;33.14;22.03
50349;BME280;36250;48.740;22.174;2022-08-26T10:44:30;99732.69;;;33.10;21.97
50349;BME280;36250;48.740;22.174;2022-08-26T10:47:01;99722.41;;;33.23;20.51
50349;BME280;36250;48.740;22.174;2022-08-26T10:49:27;99718.47;;;33.40;19.77
50349;BME280;36250;48.740;22.174;2022-08-26T10:52:16;99728.06;;;33.46;20.91
50349;BME280;36250;48.740;22.174;2022-08-26T10:54:47;99724.31;;;33.55;21.14
50349;BME280;36250;48.740;22.174;2022-08-26T10:57:24;99715.75;;;33.40;19.73
50349;BME280;36250;48.740;22.174;2022-08-26T11:00:02;99718.41;;;33.20;20.15
50349;BME280;36250;48.740;22.174;2022-08-26T11:02:59;99716.13;;;33.22;19.71
50349;BME280;36250;48.740;22.174;2022-08-26T11:05:27;99710.31;;;33.08;19.04
50349;BME280;36250;48.740;22.174;2022-08-26T11:13:06;99701.25;;;33.23;21.38
50349;BME280;36250;48.740;22.174;2022-08-26T11:18:06;99703.94;;;33.56;21.55
50349;BME280;36250;48.740;22.174;2022-08-26T11:20:43;99690.94;;;33.92;20.76
50349;BME280;36250;48.740;22.174;2022-08-26T11:28:45;99685.91;;;34.14;20.65
50349;BME280;36250;48.740;22.174;2022-08-26T11:33:57;99686.22;;;34.32;20.77
50349;BME280;36250;48.740;22.174;2022-08-26T11:36:42;99692.72;;;34.43;21.02
50349;BME280;36250;48.740;22.174;2022-08-26T11:41:45;99686.31;;;34.59;21.07
50349;BME280;36250;48.740;22.174;2022-08-26T11:44:16;99684.06;;;34.64;20.35
50349;BME280;36250;48.740;22.174;2022-08-26T11:46:50;99671.50;;;34.44;20.05
50349;BME280;36250;48.740;22.174;2022-08-26T11:49:16;99685.84;;;34.33;19.69
50349;BME280;36250;48.740;22.174;2022-08-26T11:51:41;99667.56;;;33.98;21.23
50349;BME280;36250;48.740;22.174;2022-08-26T11:54:13;99669.34;;;34.10;21.23
50349;BME280;36250;48.740;22.174;2022-08-26T11:56:40;99660.56;;;34.24;20.78
50349;BME280;36250;48.740;22.174;2022-08-26T11:59:09;99657.63;;;34.36;21.20
50349;BME280;36250;48.740;22.174;2022-08-26T12:01:37;99663.09;;;34.79;21.07
50349;BME280;36250;48.740;22.174;2022-08-26T12:04:06;99660.19;;;34.26;20.78
50349;BME280;36250;48.740;22.174;2022-08-26T12:06:38;99651.84;;;34.42;20.13
50349;BME280;36250;48.740;22.174;2022-08-26T12:09:21;99638.81;;;34.85;19.39
50349;BME280;36250;48.740;22.174;2022-08-26T12:11:46;99640.88;;;34.92;19.30
50349;BME280;36250;48.740;22.174;2022-08-26T12:14:25;99638.06;;;35.12;19.59
50349;BME280;36250;48.740;22.174;2022-08-26T12:16:51;99645.41;;;35.04;19.95
50349;BME280;36250;48.740;22.174;2022-08-26T12:19:23;99644.34;;;34.62;18.92
50349;BME280;36250;48.740;22.174;2022-08-26T12:21:52;99638.72;;;34.55;19.67
50349;BME280;36250;48.740;22.174;2022-08-26T12:24:21;99625.94;;;34.66;18.75
50349;BME280;36250;48.740;22.174;2022-08-26T12:26:46;99619.72;;;34.69;19.38
50349;BME280;36250;48.740;22.174;2022-08-26T12:29:33;99623.94;;;34.90;19.12
50349;BME280;36250;48.740;22.174;2022-08-26T12:32:13;99613.16;;;34.77;19.56
50349;BME280;36250;48.740;22.174;2022-08-26T12:34:41;99615.97;;;35.08;19.51
50349;BME280;36250;48.740;22.174;2022-08-26T12:37:10;99613.97;;;35.05;19.06
50349;BME280;36250;48.740;22.174;2022-08-26T12:39:39;99619.03;;;35.30;18.94
50349;BME280;36250;48.740;22.174;2022-08-26T12:42:22;99617.84;;;35.31;18.91
50349;BME280;36250;48.740;22.174;2022-08-26T12:44:56;99615.22;;;35.42;18.79
50349;BME280;36250;48.740;22.174;2022-08-26T12:47:34;99615.38;;;35.52;18.69
50349;BME280;36250;48.740;22.174;2022-08-26T12:50:08;99611.16;;;35.62;17.79
50349;BME280;36250;48.740;22.174;2022-08-26T12:52:42;99596.34;;;35.74;18.14
50349;BME280;36250;48.740;22.174;2022-08-26T12:55:31;99597.59;;;35.80;18.62
50349;BME280;36250;48.740;22.174;2022-08-26T12:58:26;99604.00;;;35.54;17.77
50349;BME280;36250;48.740;22.174;2022-08-26T13:08:56;99597.75;;;35.61;17.91
50349;BME280;36250;48.740;22.174;2022-08-26T13:11:33;99592.22;;;35.95;18.04
50349;BME280;36250;48.740;22.174;2022-08-26T13:14:01;99600.09;;;35.55;17.69
50349;BME280;36250;48.740;22.174;2022-08-26T13:16:26;99586.84;;;35.34;17.65
50349;BME280;36250;48.740;22.174;2022-08-26T13:18:57;99595.69;;;35.50;18.17
50349;BME280;36250;48.740;22.174;2022-08-26T13:21:26;99581.44;;;35.45;17.66
50349;BME280;36250;48.740;22.174;2022-08-26T13:23:52;99580.34;;;35.19;17.50
50349;BME280;36250;48.740;22.174;2022-08-26T13:26:18;99585.38;;;35.13;18.03
50349;BME280;36250;48.740;22.174;2022-08-26T13:28:45;99580.22;;;35.08;18.10
50349;BME280;36250;48.740;22.174;2022-08-26T13:31:11;99582.34;;;34.91;18.56
50349;BME280;36250;48.740;22.174;2022-08-26T13:33:38;99577.94;;;35.14;18.59
50349;BME280;36250;48.740;22.174;2022-08-26T13:36:04;99570.38;;;35.07;17.61
50349;BME280;36250;48.740;22.174;2022-08-26T13:38:29;99575.97;;;35.14;18.02
50349;BME280;36250;48.740;22.174;2022-08-26T13:40:55;99572.50;;;35.51;17.85
50349;BME280;36250;48.740;22.174;2022-08-26T13:43:26;99578.03;;;35.93;17.32
50349;BME280;36250;48.740;22.174;2022-08-26T13:45:52;99571.59;;;36.16;16.66